sensor_id;sensor_type;location;lat;lon;timestamp;P1;durP1;ratioP1;P2;durP2;ratioP2
33876;SDS011;20166;51.738;7.158;2023-12-04T00:01:56;8.00;;;4.63;;
33876;SDS011;20166;51.738;7.158;2023-12-04T00:04:43;8.97;;;4.60;;
33876;SDS011;20166;51.738;7.158;2023-12-04T00:07:29;10.50;;;4.03;;
33876;SDS011;20166;51.738;7.158;2023-12-04T00:10:17;6.10;;;4.53;;
33876;SDS011;20166;51.738;7.158;2023-12-04T00:13:03;8.57;;;5.33;;
33876;SDS011;20166;51.738;7.158;2023-12-04T00:15:50;12.07;;;5.80;;
33876;SDS011;20166;51.738;7.158;2023-12-04T00:18:36;8.57;;;4.83;;
33876;SDS011;20166;51.738;7.158;2023-12-04T00:21:23;11.60;;;4.27;;
33876;SDS011;20166;51.738;7.158;2023-12-04T00:24:09;11.37;;;5.00;;
33876;SDS011;20166;51.738;7.158;2023-12-04T00:26:57;8.33;;;4.40;;
33876;SDS011;20166;51.738;7.158;2023-12-04T00:29:43;8.53;;;5.20;;
33876;SDS011;20166;51.738;7.158;2023-12-04T00:32:29;6.20;;;4.17;;
33876;SDS011;20166;51.738;7.158;2023-12-04T00:35:16;8.23;;;4.80;;
33876;SDS011;20166;51.738;7.158;2023-12-04T00:38:02;8.77;;;4.87;;
33876;SDS011;20166;51.738;7.158;2023-12-04T00:40:49;7.77;;;4.87;;
33876;SDS011;20166;51.738;7.158;2023-12-04T00:43:36;10.87;;;5.83;;
33876;SDS011;20166;51.738;7.158;2023-12-04T00:46:22;7.90;;;4.90;;
33876;SDS011;20166;51.738;7.158;2023-12-04T00:49:09;6.80;;;4.57;;
33876;SDS011;20166;51.738;7.158;2023-12-04T00:51:55;8.57;;;4.23;;
33876;SDS011;20166;51.738;7.158;2023-12-04T00:54:41;8.30;;;4.57;;
33876;SDS011;20166;51.738;7.158;2023-12-04T00:57:27;9.67;;;5.30;;
33876;SDS011;20166;51.738;7.158;2023-12-04T01:00:16;8.53;;;4.83;;
33876;SDS011;20166;51.738;7.158;2023-12-04T01:03:03;9.10;;;5.27;;
33876;SDS011;20166;51.738;7.158;2023-12-04T01:05:49;6.23;;;4.57;;
33876;SDS011;20166;51.738;7.158;2023-12-04T01:08:36;6.93;;;3.93;;
33876;SDS011;20166;51.738;7.158;2023-12-04T01:11:22;9.50;;;4.43;;
33876;SDS011;20166;51.738;7.158;2023-12-04T01:14:09;10.60;;;5.27;;
33876;SDS011;20166;51.738;7.158;2023-12-04T01:16:56;9.50;;;5.37;;
33876;SDS011;20166;51.738;7.158;2023-12-04T01:19:43;10.87;;;4.30;;
33876;SDS011;20166;51.738;7.158;2023-12-04T01:22:29;10.50;;;5.17;;
33876;SDS011;20166;51.738;7.158;2023-12-04T01:25:15;8.57;;;4.20;;
33876;SDS011;20166;51.738;7.158;2023-12-04T01:28:02;7.53;;;4.73;;
33876;SDS011;20166;51.738;7.158;2023-12-04T01:30:48;8.63;;;4.33;;
33876;SDS011;20166;51.738;7.158;2023-12-04T01:33:36;7.50;;;4.47;;
33876;SDS011;20166;51.738;7.158;2023-12-04T01:36:22;6.33;;;4.23;;
33876;SDS011;20166;51.738;7.158;2023-12-04T01:39:09;8.73;;;4.33;;
33876;SDS011;20166;51.738;7.158;2023-12-04T01:41:55;9.70;;;5.10;;
33876;SDS011;20166;51.738;7.158;2023-12-04T01:44:41;25.77;;;4.93;;
33876;SDS011;20166;51.738;7.158;2023-12-04T01:47:28;7.40;;;3.50;;
33876;SDS011;20166;51.738;7.158;2023-12-04T01:50:16;6.63;;;3.97;;
33876;SDS011;20166;51.738;7.158;2023-12-04T01:53:03;8.33;;;4.53;;
33876;SDS011;20166;51.738;7.158;2023-12-04T01:55:50;7.20;;;4.37;;
33876;SDS011;20166;51.738;7.158;2023-12-04T01:58:36;6.17;;;4.10;;
33876;SDS011;20166;51.738;7.158;2023-12-04T02:01:23;8.67;;;4.10;;
33876;SDS011;20166;51.738;7.158;2023-12-04T02:04:10;7.63;;;4.20;;
33876;SDS011;20166;51.738;7.158;2023-12-04T02:06:58;6.23;;;3.43;;
33876;SDS011;20166;51.738;7.158;2023-12-04T02:09:45;8.57;;;4.20;;
33876;SDS011;20166;51.738;7.158;2023-12-04T02:12:32;8.83;;;4.87;;
33876;SDS011;20166;51.738;7.158;2023-12-04T02:15:19;3.97;;;3.23;;
33876;SDS011;20166;51.738;7.158;2023-12-04T02:18:05;5.87;;;3.70;;
33876;SDS011;20166;51.738;7.158;2023-12-04T02:20:53;6.70;;;4.67;;
33876;SDS011;20166;51.738;7.158;2023-12-04T02:23:40;4.63;;;3.17;;
33876;SDS011;20166;51.738;7.158;2023-12-04T02:26:30;5.87;;;3.83;;
33876;SDS011;20166;51.738;7.158;2023-12-04T02:29:23;8.13;;;3.93;;
33876;SDS011;20166;51.738;7.158;2023-12-04T02:32:17;4.20;;;3.50;;
33876;SDS011;20166;51.738;7.158;2023-12-04T02:35:05;4.40;;;3.70;;
33876;SDS011;20166;51.738;7.158;2023-12-04T02:37:54;8.00;;;4.33;;
33876;SDS011;20166;51.738;7.158;2023-12-04T02:40:42;8.23;;;4.27;;
33876;SDS011;20166;51.738;7.158;2023-12-04T02:43:30;7.73;;;3.90;;
33876;SDS011;20166;51.738;7.158;2023-12-04T02:46:18;5.47;;;3.97;;
33876;SDS011;20166;51.738;7.158;2023-12-04T02:49:04;5.63;;;4.17;;
33876;SDS011;20166;51.738;7.158;2023-12-04T02:51:50;8.03;;;3.97;;
33876;SDS011;20166;51.738;7.158;2023-12-04T02:54:37;11.27;;;4.90;;
33876;SDS011;20166;51.738;7.158;2023-12-04T02:57:23;7.87;;;4.50;;
33876;SDS011;20166;51.738;7.158;2023-12-04T03:00:11;9.40;;;4.80;;
33876;SDS011;20166;51.738;7.158;2023-12-04T03:02:58;6.83;;;3.57;;
33876;SDS011;20166;51.738;7.158;2023-12-04T03:05:44;4.93;;;3.67;;
33876;SDS011;20166;51.738;7.158;2023-12-04T03:08:30;6.60;;;3.70;;
33876;SDS011;20166;51.738;7.158;2023-12-04T03:11:17;7.67;;;4.20;;
33876;SDS011;20166;51.738;7.158;2023-12-04T03:14:03;7.33;;;4.17;;
33876;SDS011;20166;51.738;7.158;2023-12-04T03:16:50;11.47;;;4.57;;
33876;SDS011;20166;51.738;7.158;2023-12-04T03:19:37;7.37;;;3.87;;
33876;SDS011;20166;51.738;7.158;2023-12-04T03:22:23;7.83;;;4.70;;
33876;SDS011;20166;51.738;7.158;2023-12-04T03:25:09;9.93;;;4.67;;
33876;SDS011;20166;51.738;7.158;2023-12-04T03:27:56;8.83;;;4.93;;
33876;SDS011;20166;51.738;7.158;2023-12-04T03:30:42;7.40;;;4.50;;
33876;SDS011;20166;51.738;7.158;2023-12-04T03:33:31;12.23;;;5.80;;
33876;SDS011;20166;51.738;7.158;2023-12-04T03:36:18;6.57;;;4.17;;
33876;SDS011;20166;51.738;7.158;2023-12-04T03:39:04;8.97;;;4.07;;
33876;SDS011;20166;51.738;7.158;2023-12-04T03:41:51;9.77;;;5.33;;
33876;SDS011;20166;51.738;7.158;2023-12-04T03:44:37;6.57;;;4.03;;
33876;SDS011;20166;51.738;7.158;2023-12-04T03:47:24;7.43;;;3.83;;
33876;SDS011;20166;51.738;7.158;2023-12-04T03:50:11;4.83;;;3.70;;
33876;SDS011;20166;51.738;7.158;2023-12-04T03:52:57;5.13;;;3.77;;
33876;SDS011;20166;51.738;7.158;2023-12-04T03:55:44;6.63;;;4.50;;
33876;SDS011;20166;51.738;7.158;2023-12-04T03:58:30;5.30;;;3.70;;
33876;SDS011;20166;51.738;7.158;2023-12-04T04:01:17;6.03;;;3.80;;
33876;SDS011;20166;51.738;7.158;2023-12-04T04:04:04;8.33;;;4.20;;
33876;SDS011;20166;51.738;7.158;2023-12-04T04:06:52;5.67;;;3.67;;
33876;SDS011;20166;51.738;7.158;2023-12-04T04:09:38;5.80;;;4.67;;
33876;SDS011;20166;51.738;7.158;2023-12-04T04:12:24;6.47;;;4.53;;
33876;SDS011;20166;51.738;7.158;2023-12-04T04:15:11;3.60;;;2.77;;
33876;SDS011;20166;51.738;7.158;2023-12-04T04:17:58;8.73;;;3.50;;
33876;SDS011;20166;51.738;7.158;2023-12-04T04:20:44;6.90;;;4.17;;
33876;SDS011;20166;51.738;7.158;2023-12-04T04:23:32;8.93;;;4.80;;
33876;SDS011;20166;51.738;7.158;2023-12-04T04:26:18;8.63;;;4.47;;
33876;SDS011;20166;51.738;7.158;2023-12-04T04:29:04;5.50;;;3.77;;
33876;SDS011;20166;51.738;7.158;2023-12-04T04:31:51;8.93;;;4.27;;
33876;SDS011;20166;51.738;7.158;2023-12-04T04:34:37;6.77;;;3.63;;
33876;SDS011;20166;51.738;7.158;2023-12-04T04:37:23;6.80;;;3.90;;
33876;SDS011;20166;51.738;7.158;2023-12-04T04:40:11;7.13;;;4.23;;
33876;SDS011;20166;51.738;7.158;2023-12-04T04:42:57;6.27;;;4.37;;
33876;SDS011;20166;51.738;7.158;2023-12-04T04:45:46;7.50;;;4.17;;
33876;SDS011;20166;51.738;7.158;2023-12-04T04:48:32;6.20;;;3.50;;
33876;SDS011;20166;51.738;7.158;2023-12-04T04:51:19;6.10;;;4.40;;
33876;SDS011;20166;51.738;7.158;2023-12-04T04:54:06;9.37;;;3.73;;
33876;SDS011;20166;51.738;7.158;2023-12-04T04:56:53;11.23;;;4.17;;
33876;SDS011;20166;51.738;7.158;2023-12-04T04:59:40;6.87;;;3.47;;
33876;SDS011;20166;51.738;7.158;2023-12-04T05:02:26;4.67;;;3.97;;
33876;SDS011;20166;51.738;7.158;2023-12-04T05:05:13;4.10;;;3.50;;
33876;SDS011;20166;51.738;7.158;2023-12-04T05:07:59;11.43;;;4.67;;
33876;SDS011;20166;51.738;7.158;2023-12-04T05:10:46;7.23;;;4.37;;
33876;SDS011;20166;51.738;7.158;2023-12-04T05:13:33;11.10;;;4.17;;
33876;SDS011;20166;51.738;7.158;2023-12-04T05:16:19;5.03;;;3.63;;
33876;SDS011;20166;51.738;7.158;2023-12-04T05:19:06;4.90;;;3.57;;
33876;SDS011;20166;51.738;7.158;2023-12-04T05:21:53;4.67;;;3.63;;
33876;SDS011;20166;51.738;7.158;2023-12-04T05:24:40;6.37;;;3.60;;
33876;SDS011;20166;51.738;7.158;2023-12-04T05:27:26;6.27;;;4.17;;
33876;SDS011;20166;51.738;7.158;2023-12-04T05:30:14;5.03;;;3.77;;
33876;SDS011;20166;51.738;7.158;2023-12-04T05:33:00;6.97;;;4.17;;
33876;SDS011;20166;51.738;7.158;2023-12-04T05:35:48;5.93;;;3.67;;
33876;SDS011;20166;51.738;7.158;2023-12-04T05:38:35;3.83;;;3.37;;
33876;SDS011;20166;51.738;7.158;2023-12-04T05:41:22;6.10;;;4.20;;
33876;SDS011;20166;51.738;7.158;2023-12-04T05:44:08;5.27;;;3.77;;
33876;SDS011;20166;51.738;7.158;2023-12-04T05:46:56;4.43;;;3.73;;
33876;SDS011;20166;51.738;7.158;2023-12-04T05:49:42;5.07;;;3.63;;
33876;SDS011;20166;51.738;7.158;2023-12-04T05:52:29;3.80;;;3.07;;
33876;SDS011;20166;51.738;7.158;2023-12-04T05:55:15;7.27;;;4.00;;
33876;SDS011;20166;51.738;7.158;2023-12-04T05:58:01;4.10;;;3.07;;
33876;SDS011;20166;51.738;7.158;2023-12-04T06:00:48;6.70;;;3.70;;
33876;SDS011;20166;51.738;7.158;2023-12-04T06:03:35;4.17;;;2.77;;
33876;SDS011;20166;51.738;7.158;2023-12-04T06:06:22;4.10;;;3.33;;
33876;SDS011;20166;51.738;7.158;2023-12-04T06:09:08;3.97;;;3.10;;
33876;SDS011;20166;51.738;7.158;2023-12-04T06:11:54;6.80;;;3.43;;
33876;SDS011;20166;51.738;7.158;2023-12-04T06:14:41;5.27;;;3.37;;
33876;SDS011;20166;51.738;7.158;2023-12-04T06:17:27;4.93;;;3.27;;
33876;SDS011;20166;51.738;7.158;2023-12-04T06:20:15;4.80;;;2.77;;
33876;SDS011;20166;51.738;7.158;2023-12-04T06:23:01;5.67;;;3.83;;
33876;SDS011;20166;51.738;7.158;2023-12-04T06:25:49;6.33;;;3.50;;
33876;SDS011;20166;51.738;7.158;2023-12-04T06:28:36;7.43;;;3.60;;
33876;SDS011;20166;51.738;7.158;2023-12-04T06:31:22;3.90;;;2.83;;
33876;SDS011;20166;51.738;7.158;2023-12-04T06:34:10;5.30;;;3.27;;
33876;SDS011;20166;51.738;7.158;2023-12-04T06:36:58;4.13;;;2.80;;
33876;SDS011;20166;51.738;7.158;2023-12-04T06:39:45;2.27;;;2.00;;
33876;SDS011;20166;51.738;7.158;2023-12-04T06:42:34;4.60;;;3.00;;
33876;SDS011;20166;51.738;7.158;2023-12-04T06:45:21;3.40;;;2.37;;
33876;SDS011;20166;51.738;7.158;2023-12-04T06:48:08;2.60;;;2.33;;
33876;SDS011;20166;51.738;7.158;2023-12-04T06:50:56;4.97;;;2.57;;
33876;SDS011;20166;51.738;7.158;2023-12-04T06:53:43;4.67;;;2.50;;
33876;SDS011;20166;51.738;7.158;2023-12-04T06:56:30;3.63;;;2.43;;
33876;SDS011;20166;51.738;7.158;2023-12-04T06:59:17;5.80;;;3.17;;
33876;SDS011;20166;51.738;7.158;2023-12-04T07:02:03;2.97;;;2.43;;
33876;SDS011;20166;51.738;7.158;2023-12-04T07:04:50;4.03;;;2.37;;
33876;SDS011;20166;51.738;7.158;2023-12-04T07:07:36;3.53;;;2.90;;
33876;SDS011;20166;51.738;7.158;2023-12-04T07:10:24;5.03;;;2.43;;
33876;SDS011;20166;51.738;7.158;2023-12-04T07:13:10;11.93;;;2.93;;
33876;SDS011;20166;51.738;7.158;2023-12-04T07:15:57;4.13;;;3.30;;
33876;SDS011;20166;51.738;7.158;2023-12-04T07:18:44;4.90;;;2.90;;
33876;SDS011;20166;51.738;7.158;2023-12-04T07:21:31;3.13;;;2.50;;
33876;SDS011;20166;51.738;7.158;2023-12-04T07:24:17;4.80;;;3.27;;
33876;SDS011;20166;51.738;7.158;2023-12-04T07:27:05;7.00;;;2.90;;
33876;SDS011;20166;51.738;7.158;2023-12-04T07:29:52;6.23;;;3.60;;
33876;SDS011;20166;51.738;7.158;2023-12-04T07:32:38;3.57;;;2.53;;
33876;SDS011;20166;51.738;7.158;2023-12-04T07:38:11;4.13;;;2.33;;
33876;SDS011;20166;51.738;7.158;2023-12-04T07:40:58;8.23;;;3.03;;
33876;SDS011;20166;51.738;7.158;2023-12-04T07:43:45;2.67;;;2.37;;
33876;SDS011;20166;51.738;7.158;2023-12-04T07:46:32;2.97;;;2.57;;
33876;SDS011;20166;51.738;7.158;2023-12-04T07:49:19;4.13;;;3.23;;
33876;SDS011;20166;51.738;7.158;2023-12-04T07:52:05;3.50;;;2.50;;
33876;SDS011;20166;51.738;7.158;2023-12-04T07:54:52;4.33;;;2.90;;
33876;SDS011;20166;51.738;7.158;2023-12-04T07:57:38;3.87;;;2.77;;
33876;SDS011;20166;51.738;7.158;2023-12-04T08:00:26;3.93;;;2.80;;
33876;SDS011;20166;51.738;7.158;2023-12-04T08:03:12;4.47;;;2.17;;
33876;SDS011;20166;51.738;7.158;2023-12-04T08:05:58;4.10;;;2.47;;
33876;SDS011;20166;51.738;7.158;2023-12-04T08:08:45;4.70;;;2.97;;
33876;SDS011;20166;51.738;7.158;2023-12-04T08:11:31;5.27;;;3.33;;
33876;SDS011;20166;51.738;7.158;2023-12-04T08:14:18;4.87;;;3.07;;
33876;SDS011;20166;51.738;7.158;2023-12-04T08:17:06;5.13;;;2.90;;
33876;SDS011;20166;51.738;7.158;2023-12-04T08:19:52;5.53;;;3.10;;
33876;SDS011;20166;51.738;7.158;2023-12-04T08:22:39;4.13;;;3.50;;
33876;SDS011;20166;51.738;7.158;2023-12-04T08:25:26;4.83;;;3.53;;
33876;SDS011;20166;51.738;7.158;2023-12-04T08:28:12;10.00;;;3.73;;
33876;SDS011;20166;51.738;7.158;2023-12-04T08:30:58;4.83;;;3.23;;
33876;SDS011;20166;51.738;7.158;2023-12-04T08:33:46;5.07;;;3.47;;
33876;SDS011;20166;51.738;7.158;2023-12-04T08:36:33;4.50;;;4.00;;
33876;SDS011;20166;51.738;7.158;2023-12-04T08:39:30;4.23;;;3.27;;
33876;SDS011;20166;51.738;7.158;2023-12-04T08:42:16;6.60;;;3.77;;
33876;SDS011;20166;51.738;7.158;2023-12-04T08:45:09;5.60;;;4.13;;
33876;SDS011;20166;51.738;7.158;2023-12-04T08:47:55;5.77;;;2.90;;
33876;SDS011;20166;51.738;7.158;2023-12-04T08:50:43;8.77;;;4.90;;
33876;SDS011;20166;51.738;7.158;2023-12-04T08:53:30;4.90;;;3.17;;
33876;SDS011;20166;51.738;7.158;2023-12-04T08:56:16;8.43;;;4.70;;
33876;SDS011;20166;51.738;7.158;2023-12-04T08:59:12;4.53;;;3.70;;
33876;SDS011;20166;51.738;7.158;2023-12-04T09:01:58;4.77;;;3.03;;
33876;SDS011;20166;51.738;7.158;2023-12-04T09:04:48;4.33;;;3.30;;
33876;SDS011;20166;51.738;7.158;2023-12-04T09:07:36;3.63;;;2.80;;
33876;SDS011;20166;51.738;7.158;2023-12-04T09:10:25;3.20;;;2.60;;
33876;SDS011;20166;51.738;7.158;2023-12-04T09:13:31;3.50;;;2.87;;
33876;SDS011;20166;51.738;7.158;2023-12-04T09:16:18;3.87;;;3.23;;
33876;SDS011;20166;51.738;7.158;2023-12-04T09:19:05;4.97;;;2.53;;
33876;SDS011;20166;51.738;7.158;2023-12-04T09:21:51;6.13;;;3.50;;
33876;SDS011;20166;51.738;7.158;2023-12-04T09:24:53;3.67;;;2.83;;
33876;SDS011;20166;51.738;7.158;2023-12-04T09:27:39;6.13;;;3.53;;
33876;SDS011;20166;51.738;7.158;2023-12-04T09:30:25;3.77;;;3.10;;
33876;SDS011;20166;51.738;7.158;2023-12-04T09:33:12;3.43;;;3.13;;
33876;SDS011;20166;51.738;7.158;2023-12-04T09:35:58;3.40;;;2.60;;
33876;SDS011;20166;51.738;7.158;2023-12-04T09:38:45;5.10;;;3.60;;
33876;SDS011;20166;51.738;7.158;2023-12-04T09:41:32;5.97;;;4.07;;
33876;SDS011;20166;51.738;7.158;2023-12-04T09:44:19;8.10;;;4.00;;
33876;SDS011;20166;51.738;7.158;2023-12-04T09:47:07;5.77;;;4.07;;
33876;SDS011;20166;51.738;7.158;2023-12-04T09:49:55;6.70;;;4.03;;
33876;SDS011;20166;51.738;7.158;2023-12-04T09:52:42;4.37;;;3.43;;
33876;SDS011;20166;51.738;7.158;2023-12-04T09:55:29;7.10;;;4.30;;
33876;SDS011;20166;51.738;7.158;2023-12-04T09:58:17;6.27;;;4.00;;
33876;SDS011;20166;51.738;7.158;2023-12-04T10:01:05;7.50;;;3.37;;
33876;SDS011;20166;51.738;7.158;2023-12-04T10:03:53;7.20;;;3.80;;
33876;SDS011;20166;51.738;7.158;2023-12-04T10:06:42;6.97;;;3.77;;
33876;SDS011;20166;51.738;7.158;2023-12-04T10:09:31;3.97;;;3.00;;
33876;SDS011;20166;51.738;7.158;2023-12-04T10:12:18;6.93;;;3.50;;
33876;SDS011;20166;51.738;7.158;2023-12-04T10:15:09;6.90;;;3.23;;
33876;SDS011;20166;51.738;7.158;2023-12-04T10:17:56;3.90;;;2.93;;
33876;SDS011;20166;51.738;7.158;2023-12-04T10:20:47;6.17;;;3.13;;
33876;SDS011;20166;51.738;7.158;2023-12-04T10:23:37;6.60;;;3.63;;
33876;SDS011;20166;51.738;7.158;2023-12-04T10:26:25;3.57;;;2.60;;
33876;SDS011;20166;51.738;7.158;2023-12-04T10:29:11;4.70;;;3.17;;
33876;SDS011;20166;51.738;7.158;2023-12-04T10:31:59;3.77;;;2.90;;
33876;SDS011;20166;51.738;7.158;2023-12-04T10:34:48;5.27;;;2.93;;
33876;SDS011;20166;51.738;7.158;2023-12-04T10:37:35;7.53;;;3.10;;
33876;SDS011;20166;51.738;7.158;2023-12-04T10:40:25;5.33;;;2.87;;
33876;SDS011;20166;51.738;7.158;2023-12-04T10:43:14;6.50;;;3.20;;
33876;SDS011;20166;51.738;7.158;2023-12-04T10:46:01;4.93;;;3.73;;
33876;SDS011;20166;51.738;7.158;2023-12-04T10:48:49;4.90;;;3.80;;
33876;SDS011;20166;51.738;7.158;2023-12-04T10:51:35;5.20;;;3.83;;
33876;SDS011;20166;51.738;7.158;2023-12-04T10:54:22;8.50;;;3.63;;
33876;SDS011;20166;51.738;7.158;2023-12-04T10:57:09;11.23;;;4.50;;
33876;SDS011;20166;51.738;7.158;2023-12-04T10:59:56;7.57;;;3.63;;
33876;SDS011;20166;51.738;7.158;2023-12-04T11:02:48;6.90;;;4.00;;
33876;SDS011;20166;51.738;7.158;2023-12-04T11:05:37;4.33;;;3.17;;
33876;SDS011;20166;51.738;7.158;2023-12-04T11:08:25;5.23;;;3.10;;
33876;SDS011;20166;51.738;7.158;2023-12-04T11:11:19;3.83;;;3.17;;
33876;SDS011;20166;51.738;7.158;2023-12-04T11:14:08;11.00;;;4.80;;
33876;SDS011;20166;51.738;7.158;2023-12-04T11:17:01;4.27;;;3.30;;
33876;SDS011;20166;51.738;7.158;2023-12-04T11:19:54;4.50;;;2.97;;
33876;SDS011;20166;51.738;7.158;2023-12-04T11:22:43;5.20;;;3.20;;
33876;SDS011;20166;51.738;7.158;2023-12-04T11:25:31;7.37;;;2.80;;
33876;SDS011;20166;51.738;7.158;2023-12-04T11:28:19;5.03;;;3.40;;
33876;SDS011;20166;51.738;7.158;2023-12-04T11:31:06;6.70;;;3.37;;
33876;SDS011;20166;51.738;7.158;2023-12-04T11:33:53;3.80;;;2.87;;
33876;SDS011;20166;51.738;7.158;2023-12-04T11:36:47;5.17;;;3.37;;
33876;SDS011;20166;51.738;7.158;2023-12-04T11:39:34;9.73;;;3.70;;
33876;SDS011;20166;51.738;7.158;2023-12-04T11:42:22;6.47;;;3.10;;
33876;SDS011;20166;51.738;7.158;2023-12-04T11:45:09;6.80;;;3.60;;
33876;SDS011;20166;51.738;7.158;2023-12-04T11:47:56;4.77;;;3.30;;
33876;SDS011;20166;51.738;7.158;2023-12-04T11:50:43;5.63;;;3.27;;
33876;SDS011;20166;51.738;7.158;2023-12-04T11:53:29;5.57;;;3.80;;
33876;SDS011;20166;51.738;7.158;2023-12-04T11:56:17;5.53;;;3.23;;
33876;SDS011;20166;51.738;7.158;2023-12-04T11:59:04;3.27;;;2.50;;
33876;SDS011;20166;51.738;7.158;2023-12-04T12:01:52;6.83;;;3.13;;
33876;SDS011;20166;51.738;7.158;2023-12-04T12:04:40;7.13;;;2.80;;
33876;SDS011;20166;51.738;7.158;2023-12-04T12:07:26;4.23;;;2.77;;
33876;SDS011;20166;51.738;7.158;2023-12-04T12:10:13;3.97;;;2.73;;
33876;SDS011;20166;51.738;7.158;2023-12-04T12:13:01;3.40;;;3.00;;
33876;SDS011;20166;51.738;7.158;2023-12-04T12:15:48;4.80;;;3.37;;
33876;SDS011;20166;51.738;7.158;2023-12-04T12:18:37;6.10;;;3.53;;
33876;SDS011;20166;51.738;7.158;2023-12-04T12:21:24;5.23;;;3.00;;
33876;SDS011;20166;51.738;7.158;2023-12-04T12:24:11;4.40;;;3.43;;
33876;SDS011;20166;51.738;7.158;2023-12-04T12:26:58;4.07;;;2.80;;
33876;SDS011;20166;51.738;7.158;2023-12-04T12:29:45;3.10;;;2.53;;
33876;SDS011;20166;51.738;7.158;2023-12-04T12:32:32;5.37;;;3.40;;
33876;SDS011;20166;51.738;7.158;2023-12-04T12:35:19;5.37;;;3.50;;
33876;SDS011;20166;51.738;7.158;2023-12-04T12:38:05;5.07;;;2.93;;
33876;SDS011;20166;51.738;7.158;2023-12-04T12:40:52;5.17;;;3.40;;
33876;SDS011;20166;51.738;7.158;2023-12-04T12:43:38;8.17;;;3.67;;
33876;SDS011;20166;51.738;7.158;2023-12-04T12:46:26;6.43;;;3.37;;
33876;SDS011;20166;51.738;7.158;2023-12-04T12:49:14;4.50;;;2.90;;
33876;SDS011;20166;51.738;7.158;2023-12-04T12:52:16;5.83;;;3.20;;
33876;SDS011;20166;51.738;7.158;2023-12-04T12:55:03;5.60;;;3.30;;
33876;SDS011;20166;51.738;7.158;2023-12-04T12:57:50;6.47;;;2.83;;
33876;SDS011;20166;51.738;7.158;2023-12-04T13:00:39;5.67;;;3.77;;
33876;SDS011;20166;51.738;7.158;2023-12-04T13:03:29;6.07;;;3.33;;
33876;SDS011;20166;51.738;7.158;2023-12-04T13:06:16;3.73;;;2.80;;
33876;SDS011;20166;51.738;7.158;2023-12-04T13:09:03;5.17;;;3.60;;
33876;SDS011;20166;51.738;7.158;2023-12-04T13:11:51;4.03;;;2.77;;
33876;SDS011;20166;51.738;7.158;2023-12-04T13:14:38;3.67;;;3.20;;
33876;SDS011;20166;51.738;7.158;2023-12-04T13:17:24;5.13;;;3.47;;
33876;SDS011;20166;51.738;7.158;2023-12-04T13:20:12;3.57;;;2.80;;
33876;SDS011;20166;51.738;7.158;2023-12-04T13:22:59;5.63;;;3.20;;
33876;SDS011;20166;51.738;7.158;2023-12-04T13:25:46;5.30;;;3.43;;
33876;SDS011;20166;51.738;7.158;2023-12-04T13:28:32;6.20;;;3.43;;
33876;SDS011;20166;51.738;7.158;2023-12-04T13:31:28;11.63;;;4.07;;
33876;SDS011;20166;51.738;7.158;2023-12-04T13:34:14;10.53;;;4.23;;
33876;SDS011;20166;51.738;7.158;2023-12-04T13:37:03;6.00;;;3.37;;
33876;SDS011;20166;51.738;7.158;2023-12-04T13:39:49;5.43;;;3.97;;
33876;SDS011;20166;51.738;7.158;2023-12-04T13:42:43;5.33;;;3.90;;
33876;SDS011;20166;51.738;7.158;2023-12-04T13:45:47;7.80;;;4.53;;
33876;SDS011;20166;51.738;7.158;2023-12-04T13:48:33;9.67;;;4.97;;
33876;SDS011;20166;51.738;7.158;2023-12-04T13:51:19;7.70;;;4.20;;
33876;SDS011;20166;51.738;7.158;2023-12-04T13:54:07;6.60;;;3.70;;
33876;SDS011;20166;51.738;7.158;2023-12-04T13:57:05;8.40;;;4.03;;
33876;SDS011;20166;51.738;7.158;2023-12-04T13:59:52;5.40;;;3.97;;
33876;SDS011;20166;51.738;7.158;2023-12-04T14:02:38;6.00;;;3.50;;
33876;SDS011;20166;51.738;7.158;2023-12-04T14:05:25;5.50;;;4.27;;
33876;SDS011;20166;51.738;7.158;2023-12-04T14:08:12;5.13;;;3.83;;
33876;SDS011;20166;51.738;7.158;2023-12-04T14:11:00;7.57;;;3.80;;
33876;SDS011;20166;51.738;7.158;2023-12-04T14:13:47;7.60;;;4.07;;
33876;SDS011;20166;51.738;7.158;2023-12-04T14:16:33;7.67;;;4.33;;
33876;SDS011;20166;51.738;7.158;2023-12-04T14:19:19;4.37;;;3.37;;
33876;SDS011;20166;51.738;7.158;2023-12-04T14:22:06;5.93;;;3.57;;
33876;SDS011;20166;51.738;7.158;2023-12-04T14:24:53;7.03;;;3.50;;
33876;SDS011;20166;51.738;7.158;2023-12-04T14:27:41;5.13;;;3.73;;
33876;SDS011;20166;51.738;7.158;2023-12-04T14:30:29;4.97;;;3.40;;
33876;SDS011;20166;51.738;7.158;2023-12-04T14:33:15;8.73;;;4.77;;
33876;SDS011;20166;51.738;7.158;2023-12-04T14:36:02;5.50;;;3.80;;
33876;SDS011;20166;51.738;7.158;2023-12-04T14:38:49;4.70;;;3.73;;
33876;SDS011;20166;51.738;7.158;2023-12-04T14:41:36;5.90;;;4.10;;
33876;SDS011;20166;51.738;7.158;2023-12-04T14:44:23;6.77;;;4.13;;
33876;SDS011;20166;51.738;7.158;2023-12-04T14:47:09;6.07;;;4.33;;
33876;SDS011;20166;51.738;7.158;2023-12-04T14:49:56;12.20;;;5.13;;
33876;SDS011;20166;51.738;7.158;2023-12-04T14:52:43;10.20;;;6.03;;
33876;SDS011;20166;51.738;7.158;2023-12-04T14:55:34;10.00;;;4.83;;
33876;SDS011;20166;51.738;7.158;2023-12-04T14:58:51;6.53;;;4.10;;
33876;SDS011;20166;51.738;7.158;2023-12-04T15:02:05;9.77;;;6.17;;
33876;SDS011;20166;51.738;7.158;2023-12-04T15:05:15;9.13;;;4.53;;
33876;SDS011;20166;51.738;7.158;2023-12-04T15:08:24;8.40;;;4.00;;
33876;SDS011;20166;51.738;7.158;2023-12-04T15:11:29;5.23;;;3.50;;
33876;SDS011;20166;51.738;7.158;2023-12-04T15:14:51;7.80;;;3.93;;
33876;SDS011;20166;51.738;7.158;2023-12-04T15:17:43;8.53;;;4.10;;
33876;SDS011;20166;51.738;7.158;2023-12-04T15:20:33;6.23;;;4.90;;
33876;SDS011;20166;51.738;7.158;2023-12-04T15:23:23;22.80;;;8.33;;
33876;SDS011;20166;51.738;7.158;2023-12-04T15:26:09;16.33;;;6.17;;
33876;SDS011;20166;51.738;7.158;2023-12-04T15:28:56;9.07;;;5.67;;
33876;SDS011;20166;51.738;7.158;2023-12-04T15:31:42;10.43;;;6.17;;
33876;SDS011;20166;51.738;7.158;2023-12-04T15:34:29;15.03;;;7.40;;
33876;SDS011;20166;51.738;7.158;2023-12-04T15:37:15;32.67;;;9.87;;
33876;SDS011;20166;51.738;7.158;2023-12-04T15:40:01;17.47;;;10.83;;
33876;SDS011;20166;51.738;7.158;2023-12-04T15:42:48;8.23;;;5.80;;
33876;SDS011;20166;51.738;7.158;2023-12-04T15:45:34;6.73;;;4.73;;
33876;SDS011;20166;51.738;7.158;2023-12-04T15:48:19;9.47;;;5.23;;
33876;SDS011;20166;51.738;7.158;2023-12-04T15:51:07;10.77;;;5.77;;
33876;SDS011;20166;51.738;7.158;2023-12-04T15:53:53;4.70;;;3.90;;
33876;SDS011;20166;51.738;7.158;2023-12-04T15:56:39;6.63;;;5.00;;
33876;SDS011;20166;51.738;7.158;2023-12-04T15:59:26;10.73;;;6.00;;
33876;SDS011;20166;51.738;7.158;2023-12-04T16:02:11;6.90;;;4.80;;
33876;SDS011;20166;51.738;7.158;2023-12-04T16:04:58;8.50;;;5.07;;
33876;SDS011;20166;51.738;7.158;2023-12-04T16:07:48;8.03;;;4.03;;
33876;SDS011;20166;51.738;7.158;2023-12-04T16:10:34;11.67;;;5.60;;
33876;SDS011;20166;51.738;7.158;2023-12-04T16:13:22;9.43;;;5.60;;
33876;SDS011;20166;51.738;7.158;2023-12-04T16:16:08;5.27;;;4.53;;
33876;SDS011;20166;51.738;7.158;2023-12-04T16:18:55;18.37;;;8.90;;
33876;SDS011;20166;51.738;7.158;2023-12-04T16:21:41;9.27;;;6.57;;
33876;SDS011;20166;51.738;7.158;2023-12-04T16:24:28;14.07;;;5.37;;
33876;SDS011;20166;51.738;7.158;2023-12-04T16:27:15;9.23;;;6.07;;
33876;SDS011;20166;51.738;7.158;2023-12-04T16:30:01;8.80;;;4.53;;
33876;SDS011;20166;51.738;7.158;2023-12-04T16:32:48;9.03;;;5.10;;
33876;SDS011;20166;51.738;7.158;2023-12-04T16:35:36;7.53;;;4.60;;
33876;SDS011;20166;51.738;7.158;2023-12-04T16:38:23;10.77;;;5.20;;
33876;SDS011;20166;51.738;7.158;2023-12-04T16:41:13;11.93;;;5.67;;
33876;SDS011;20166;51.738;7.158;2023-12-04T16:43:59;9.73;;;5.97;;
33876;SDS011;20166;51.738;7.158;2023-12-04T16:46:45;6.67;;;4.63;;
33876;SDS011;20166;51.738;7.158;2023-12-04T16:49:32;6.23;;;4.13;;
33876;SDS011;20166;51.738;7.158;2023-12-04T16:52:19;9.07;;;5.13;;